75°F Temp
55°F Dewpoint
50% Humidity
Temperature
6 MPH
10 KM/H
5 KTS
200°
South South
West

Wind Speed
Partly Cloudy
Conditions
Pressure 1013.52 (hPa) - 29.93 (in)
Visibility 10.0 (mi) - 16.1 (km)

Current Conditions
KCPS
Location 10(mi)
Metar :KCPS 062153Z 20005KT 10SM FEW048 BKN060 24/13 A2993 RMK AO2 SLP133 T02440128
Mon 6th April 15:53 pm

Airport
  Metar Aviation API Data Provided by https://www.checkwx.com/ PHP scripts by weather34.com ©2020